M I D A S
Marine Information and Data Acquisition System
Tripno 843 of the Zeeleeuw from 2005-01-28 07:43:36 to 2005-01-28 13:05:56
Back to CruiseResearch ActivitiesStationsMapUnderway DataData graphs

EquipmentUnitsComments
TimeDGPSUTC
LatitudeDGPSDM.mWGS84
LongitudeDGPSDM.mWGS84
SpeedMeteo Stationm/sRelative wind speed
DirectionMeteo StationdegRelative wind direction
TemperatureMeteo Stationdeg CelciusAir temperature
PressureMeteo StationPaAtmospheric pressure
HumidityMeteo Station%Relative humidity
Missing or incorrect values are displayed as -999
Metereological data collected by the RV Zeeleeuw from 2005-01-28 07:44:36 to 2005-01-28 13:14:41
                                                                                    Next 1000 lines
Time Latitude Longitude Speed Direction Temperature Pressure Humidity
2005-01-28 07:44:46 51°13.595 2°56.093 3.2 223 6.2 101280 100
2005-01-28 07:44:51 51°13.596 2°56.088 2.6 229 6.2 101280 100
2005-01-28 07:44:56 51°13.598 2°56.083 3.2 237 6.2 101280 100
2005-01-28 07:45:02 51°13.6 2°56.077 2.7 217 6.2 101280 100
2005-01-28 07:45:06 51°13.601 2°56.072 3.6 206 6.2 101280 100
2005-01-28 07:45:11 51°13.603 2°56.066 5.1 216 6.2 101280 100
2005-01-28 07:45:16 51°13.604 2°56.061 3.6 211 6.2 101280 100
2005-01-28 07:45:22 51°13.606 2°56.056 3.7 234 6.2 101280 100
2005-01-28 07:45:26 51°13.606 2°56.054 4 206 6.2 101270 100
2005-01-28 07:45:31 51°13.607 2°56.052 2.7 210 6.2 101270 100
2005-01-28 07:45:36 51°13.607 2°56.052 1.9 232 6.2 101280 100
2005-01-28 07:45:41 51°13.606 2°56.054 1.5 233 6.2 101280 100
2005-01-28 07:45:46 51°13.605 2°56.056 1.9 222 6.1 101280 100
2005-01-28 07:45:51 51°13.604 2°56.06 1.7 212 6.1 101280 100
2005-01-28 07:45:56 51°13.602 2°56.064 2.9 223 6.1 101270 100
2005-01-28 07:46:01 51°13.6 2°56.069 2.7 227 6.1 101270 100
2005-01-28 07:46:07 51°13.596 2°56.075 1.1 245 6.1 101270 100
2005-01-28 07:46:11 51°13.594 2°56.08 1.3 238 6.1 101270 100
2005-01-28 07:46:16 51°13.591 2°56.085 1.6 269 6.1 101270 100
2005-01-28 07:46:21 51°13.588 2°56.09 1.4 255 6.1 101270 100
2005-01-28 07:46:25 51°13.586 2°56.095 1.5 257 6.1 101280 100
2005-01-28 07:46:31 51°13.582 2°56.101 1.4 265 6.1 101280 100
2005-01-28 07:46:36 51°13.579 2°56.107 0.8 277 6.1 101280 100
2005-01-28 07:46:40 51°13.576 2°56.111 0.8 282 6.1 101280 100
2005-01-28 07:46:46 51°13.573 2°56.117 0.6 286 6.1 101280 100
2005-01-28 07:46:50 51°13.57 2°56.122 0.6 279 6.1 101280 100
2005-01-28 07:46:56 51°13.566 2°56.127 1.6 293 6.1 101270 100
2005-01-28 07:47:01 51°13.563 2°56.132 0.7 285 6.1 101270 100
2005-01-28 07:47:06 51°13.56 2°56.137 3.9 224 6.1 101280 100
2005-01-28 07:47:10 51°13.557 2°56.141 2.6 230 6.1 101280 100
2005-01-28 07:47:14 51°13.555 2°56.145 3.3 245 6.1 101280 100
2005-01-28 07:47:20 51°13.551 2°56.152 2.8 252 6.1 101280 100
2005-01-28 07:47:26 51°13.548 2°56.158 3.4 258 6.1 101280 100
2005-01-28 07:47:30 51°13.546 2°56.162 3.5 251 6.1 101280 100
2005-01-28 07:47:36 51°13.542 2°56.169 2 266 6.1 101280 100
2005-01-28 07:47:41 51°13.54 2°56.176 2.2 256 6.1 101280 100
2005-01-28 07:47:46 51°13.538 2°56.183 1.5 257 6.1 101280 100
2005-01-28 07:47:51 51°13.536 2°56.19 2.6 299 6.1 101280 100
2005-01-28 07:47:56 51°13.536 2°56.197 4 300 6.1 101280 100
2005-01-28 07:48:00 51°13.535 2°56.204 3 284 6.1 101280 100
2005-01-28 07:48:05 51°13.535 2°56.212 5.9 303 6.1 101280 100
2005-01-28 07:48:11 51°13.536 2°56.22 5.4 299 6.1 101280 100
2005-01-28 07:48:16 51°13.536 2°56.225 4.5 300 6.1 101280 100
2005-01-28 07:48:21 51°13.537 2°56.229 4 297 6.1 101280 100
2005-01-28 07:48:25 51°13.537 2°56.232 4.5 289 6.1 101280 100
2005-01-28 07:48:31 51°13.537 2°56.234 3.7 288 6.1 101280 100
2005-01-28 07:48:36 51°13.537 2°56.233 4.3 275 6.1 101280 100
2005-01-28 07:48:41 51°13.537 2°56.232 4.5 258 6.1 101280 100
2005-01-28 07:48:46 51°13.536 2°56.23 6.4 281 6.1 101270 100
2005-01-28 07:48:50 51°13.535 2°56.227 4.7 282 6.1 101270 100
2005-01-28 07:48:56 51°13.534 2°56.223 3.1 293 6.1 101280 100
2005-01-28 07:49:00 51°13.534 2°56.22 3.8 283 6.1 101280 100
2005-01-28 07:49:06 51°13.534 2°56.22 3.4 299 6.1 101270 100
2005-01-28 07:49:11 51°13.534 2°56.221 3.1 295 6.1 101270 100
2005-01-28 07:49:16 51°13.535 2°56.223 4.5 297 6.1 101280 100
2005-01-28 07:49:22 51°13.537 2°56.225 4.6 312 6.1 101280 100
2005-01-28 07:49:26 51°13.538 2°56.228 5.2 307 6.1 101270 100
2005-01-28 07:49:31 51°13.54 2°56.229 3.6 335 6.1 101270 100
2005-01-28 07:49:36 51°13.54 2°56.23 3.9 297 6.1 101280 100
2005-01-28 07:49:42 51°13.541 2°56.23 3 321 6.1 101280 100
2005-01-28 07:49:46 51°13.54 2°56.229 2.1 230 6.1 101280 100
2005-01-28 07:49:51 51°13.539 2°56.228 2.6 330 6.1 101280 100
2005-01-28 07:49:56 51°13.538 2°56.226 1.6 295 6.1 101280 100
2005-01-28 07:50:02 51°13.537 2°56.225 2.4 304 6.1 101280 100
2005-01-28 07:50:06 51°13.536 2°56.224 3 299 6.1 101280 100
2005-01-28 07:50:12 51°13.536 2°56.224 4.1 332 6.1 101280 100
2005-01-28 07:50:16 51°13.537 2°56.225 3.6 323 6.1 101280 100
2005-01-28 07:50:21 51°13.539 2°56.225 2.8 353 6.1 101280 100
2005-01-28 07:50:25 51°13.54 2°56.226 3.2 350 6.1 101280 100
2005-01-28 07:50:31 51°13.541 2°56.226 3.5 357 6.1 101280 100
2005-01-28 07:50:36 51°13.542 2°56.226 4.9 349 6.1 101280 100
2005-01-28 07:50:41 51°13.541 2°56.225 3.6 336 6.1 101280 100
2005-01-28 07:50:46 51°13.54 2°56.226 3.1 357 6.1 101280 100
2005-01-28 07:50:52 51°13.538 2°56.226 3 348 6.1 101280 100
2005-01-28 07:50:56 51°13.536 2°56.226 2.2 31 6.1 101280 100
2005-01-28 07:51:01 51°13.534 2°56.226 2.6 51 6.1 101280 100
2005-01-28 07:51:06 51°13.532 2°56.226 2 346 6.1 101280 100
2005-01-28 07:51:11 51°13.531 2°56.227 2.2 337 6.1 101280 100
2005-01-28 07:51:17 51°13.532 2°56.226 3.5 3 6.1 101280 100
2005-01-28 07:51:21 51°13.533 2°56.226 3.7 1 6.1 101280 100
2005-01-28 07:51:26 51°13.536 2°56.226 3.8 354 6.1 101280 100
2005-01-28 07:51:31 51°13.537 2°56.225 4.2 10 6.1 101280 100
2005-01-28 07:51:36 51°13.538 2°56.225 3.7 27 6.1 101280 100
2005-01-28 07:51:42 51°13.539 2°56.225 4.3 27 6.1 101280 100
2005-01-28 07:51:45 51°13.539 2°56.225 4.1 18 6.1 101280 100
2005-01-28 07:51:51 51°13.538 2°56.226 3.7 65 6.1 101280 100
2005-01-28 07:51:56 51°13.537 2°56.228 2.2 51 6.1 101270 100
2005-01-28 07:52:00 51°13.535 2°56.229 3.5 38 6.1 101270 100
2005-01-28 07:52:06 51°13.533 2°56.232 2.3 60 6.1 101280 100
2005-01-28 07:52:11 51°13.53 2°56.235 3.1 47 6.1 101280 100
2005-01-28 07:52:16 51°13.528 2°56.239 2.5 47 6.1 101270 100
2005-01-28 07:52:22 51°13.525 2°56.242 1.9 58 6.1 101270 100
2005-01-28 07:52:27 51°13.523 2°56.246 2 61 6.1 101270 100
2005-01-28 07:52:31 51°13.521 2°56.247 1.9 39 6.1 101270 100
2005-01-28 07:52:36 51°13.52 2°56.249 3 20 6.1 101280 100
2005-01-28 07:52:41 51°13.52 2°56.249 3.8 27 6.1 101280 100
2005-01-28 07:52:46 51°13.519 2°56.25 3.5 31 6.1 101280 100
2005-01-28 07:52:50 51°13.519 2°56.25 3.2 42 6.1 101280 100
2005-01-28 07:52:56 51°13.52 2°56.249 3 13 6.1 101280 100
2005-01-28 07:53:00 51°13.52 2°56.249 4.3 35 6.1 101280 100
2005-01-28 07:53:05 51°13.52 2°56.248 3.6 44 6.1 101280 100
2005-01-28 07:53:11 51°13.52 2°56.247 4.4 37 6.1 101280 100
2005-01-28 07:53:16 51°13.521 2°56.247 3.6 62 6.1 101280 100
2005-01-28 07:53:21 51°13.521 2°56.246 3.7 51 6.1 101280 100
2005-01-28 07:53:26 51°13.521 2°56.246 3.8 29 6.1 101270 100
2005-01-28 07:53:30 51°13.521 2°56.246 3.6 61 6.1 101270 100
2005-01-28 07:53:36 51°13.522 2°56.245 4.8 41 6.1 101280 100
2005-01-28 07:53:40 51°13.522 2°56.244 4.1 51 6.1 101280 100
2005-01-28 07:53:46 51°13.523 2°56.243 4 44 6.1 101280 100
2005-01-28 07:53:50 51°13.523 2°56.243 3.5 26 6.1 101280 100
2005-01-28 07:53:56 51°13.524 2°56.242 3.4 45 6.1 101270 100
2005-01-28 07:54:01 51°13.525 2°56.241 3.3 43 6.1 101270 100
2005-01-28 07:54:06 51°13.525 2°56.24 3.9 50 6.1 101280 100
2005-01-28 07:54:10 51°13.526 2°56.239 4.7 41 6.1 101280 100
2005-01-28 07:54:14 51°13.527 2°56.238 3.9 44 6.1 101270 100
2005-01-28 07:54:20 51°13.527 2°56.236 3.5 54 6.1 101270 100
2005-01-28 07:54:26 51°13.528 2°56.235 3.8 48 6.1 101280 100
2005-01-28 07:54:30 51°13.529 2°56.235 3.4 49 6.1 101280 100
2005-01-28 07:54:36 51°13.529 2°56.233 4.1 49 6.1 101280 100
2005-01-28 07:54:41 51°13.53 2°56.232 5.2 53 6.1 101280 100
2005-01-28 07:54:46 51°13.53 2°56.231 4.9 59 6.1 101280 100
2005-01-28 07:54:51 51°13.531 2°56.23 4.9 60 6.1 101280 100
2005-01-28 07:54:56 51°13.531 2°56.228 3.3 58 6.1 101280 100
2005-01-28 07:55:01 51°13.532 2°56.227 5 60 6.1 101280 100
2005-01-28 07:55:05 51°13.532 2°56.226 5.2 56 6.1 101280 100
2005-01-28 07:55:11 51°13.533 2°56.224 4.1 77 6.1 101280 100
2005-01-28 07:55:16 51°13.534 2°56.222 3.8 62 6.1 101270 100
2005-01-28 07:55:21 51°13.534 2°56.22 3.5 60 6.1 101270 100
2005-01-28 07:55:25 51°13.535 2°56.219 2.9 50 6.1 101280 100
2005-01-28 07:55:31 51°13.535 2°56.217 4.3 50 6.1 101280 100
2005-01-28 07:55:36 51°13.535 2°56.216 3.4 64 6.1 101280 100
2005-01-28 07:55:41 51°13.536 2°56.214 3.8 50 6.1 101280 100
2005-01-28 07:55:46 51°13.536 2°56.213 3.6 47 6.1 101280 100
2005-01-28 07:55:50 51°13.537 2°56.211 3.6 76 6.1 101280 100
2005-01-28 07:55:56 51°13.537 2°56.21 3.5 68 6.1 101280 100
2005-01-28 07:56:00 51°13.538 2°56.208 3.4 30 6.1 101280 100
2005-01-28 07:56:05 51°13.538 2°56.207 2.8 47 6.1 101280 100
2005-01-28 07:56:11 51°13.538 2°56.205 3.6 91 6.1 101280 100
2005-01-28 07:56:16 51°13.538 2°56.204 2.7 102 6.1 101280 100
2005-01-28 07:56:21 51°13.539 2°56.202 2.1 44 6.1 101280 100
2005-01-28 07:56:26 51°13.539 2°56.199 1.9 30 6.1 101270 100
2005-01-28 07:56:30 51°13.539 2°56.198 3 80 6.1 101270 100
2005-01-28 07:56:36 51°13.539 2°56.195 2.3 63 6.1 101270 100
2005-01-28 07:56:40 51°13.54 2°56.193 3.4 81 6.1 101270 100
2005-01-28 07:56:46 51°13.54 2°56.19 3.4 86 6.1 101270 100
2005-01-28 07:56:51 51°13.541 2°56.187 2.7 68 6.1 101270 100
2005-01-28 07:56:56 51°13.541 2°56.185 3 55 6.1 101270 100
2005-01-28 07:57:01 51°13.542 2°56.182 2.7 43 6.1 101270 100
2005-01-28 07:57:06 51°13.542 2°56.179 4.6 57 6.1 101270 100
2005-01-28 07:57:11 51°13.543 2°56.176 4.8 57 6.1 101270 100
2005-01-28 07:57:16 51°13.543 2°56.174 3.8 36 6.1 101270 100
2005-01-28 07:57:20 51°13.544 2°56.171 5.6 59 6.1 101270 100
2005-01-28 07:57:26 51°13.545 2°56.167 4.8 50 6.1 101270 100
2005-01-28 07:57:30 51°13.545 2°56.164 5.2 69 6.1 101270 100
2005-01-28 07:57:36 51°13.546 2°56.16 3.9 43 6.1 101270 100
2005-01-28 07:57:41 51°13.547 2°56.157 2.8 35 6.1 101270 100
2005-01-28 07:57:45 51°13.548 2°56.154 4.4 48 6.1 101270 100
2005-01-28 07:57:50 51°13.549 2°56.15 3.5 53 6.1 101270 100
2005-01-28 07:57:56 51°13.55 2°56.146 5.2 38 6.1 101270 100
2005-01-28 07:58:00 51°13.551 2°56.142 3.1 40 6.1 101270 100
2005-01-28 07:58:06 51°13.553 2°56.138 2.7 33 6.1 101270 100
2005-01-28 07:58:10 51°13.554 2°56.134 4 55 6.1 101270 100
2005-01-28 07:58:16 51°13.555 2°56.129 3.1 37 6.1 101270 100
2005-01-28 07:58:21 51°13.557 2°56.125 2.8 35 6.1 101270 100
2005-01-28 07:58:26 51°13.558 2°56.121 2.7 35 6.1 101270 100
2005-01-28 07:58:31 51°13.56 2°56.117 4 24 6.1 101270 100
2005-01-28 07:58:36 51°13.561 2°56.112 3.6 35 6.1 101270 100
2005-01-28 07:58:41 51°13.563 2°56.108 4.2 28 6.1 101270 100
2005-01-28 07:58:46 51°13.564 2°56.103 3.8 36 6.1 101270 100
2005-01-28 07:58:51 51°13.566 2°56.098 4.2 42 6.1 101270 100
2005-01-28 07:58:56 51°13.568 2°56.092 4.3 52 6.1 101270 100
2005-01-28 07:59:01 51°13.57 2°56.088 4.6 44 6.1 101270 100
2005-01-28 07:59:06 51°13.572 2°56.082 4.2 32 6.1 101270 100
2005-01-28 07:59:10 51°13.574 2°56.078 4.5 41 6.1 101270 100
2005-01-28 07:59:16 51°13.576 2°56.071 5.4 58 6.1 101270 100
2005-01-28 07:59:21 51°13.579 2°56.066 4.1 52 6.1 101270 100
2005-01-28 07:59:25 51°13.581 2°56.061 4.2 44 6.1 101270 100
2005-01-28 07:59:31 51°13.584 2°56.055 4.9 30 6.1 101270 100
2005-01-28 07:59:36 51°13.586 2°56.049 4.8 18 6.1 101270 100
2005-01-28 07:59:41 51°13.589 2°56.043 5.8 37 6.1 101270 100
2005-01-28 07:59:46 51°13.591 2°56.037 6.5 40 6.1 101270 100
2005-01-28 07:59:50 51°13.593 2°56.032 5.5 37 6.1 101270 100
2005-01-28 07:59:56 51°13.597 2°56.025 7.2 25 6.1 101270 100
2005-01-28 08:00:01 51°13.6 2°56.018 7.8 31 6.1 101270 100
2005-01-28 08:00:06 51°13.603 2°56.012 7 37 6.1 101270 100
2005-01-28 08:00:10 51°13.606 2°56.005 5.7 39 6.1 101270 100
2005-01-28 08:00:16 51°13.61 2°55.997 5.8 25 6.1 101260 100
2005-01-28 08:00:21 51°13.613 2°55.991 5.1 12 6.1 101260 100
2005-01-28 08:00:26 51°13.616 2°55.984 5 22 6.1 101270 100
2005-01-28 08:00:31 51°13.62 2°55.977 6.7 31 6.1 101270 100
2005-01-28 08:00:36 51°13.623 2°55.969 6.2 32 6.1 101270 100
2005-01-28 08:00:40 51°13.627 2°55.963 5.3 8 6.1 101270 100
2005-01-28 08:00:46 51°13.631 2°55.954 5.2 13 6.1 101260 100
2005-01-28 08:00:50 51°13.634 2°55.947 7.1 23 6.1 101260 100
2005-01-28 08:00:56 51°13.638 2°55.938 6.9 31 6.1 101270 100
2005-01-28 08:01:01 51°13.641 2°55.931 5 28 6.1 101270 100
2005-01-28 08:01:06 51°13.645 2°55.923 7.6 26 6.1 101260 100
2005-01-28 08:01:10 51°13.648 2°55.915 6.3 28 6.1 101260 100
2005-01-28 08:01:16 51°13.652 2°55.906 6.7 26 6.1 101260 100
2005-01-28 08:01:21 51°13.656 2°55.897 7.9 38 6.1 101260 100
2005-01-28 08:01:26 51°13.66 2°55.889 8.9 43 6.1 101270 100
2005-01-28 08:01:31 51°13.664 2°55.879 9.4 43 6.1 101270 100
2005-01-28 08:01:36 51°13.668 2°55.869 7.9 35 6.1 101270 100
2005-01-28 08:01:41 51°13.672 2°55.859 4.9 30 6.1 101270 100
2005-01-28 08:01:46 51°13.676 2°55.849 7.4 33 6.1 101260 100
2005-01-28 08:01:50 51°13.68 2°55.839 7.5 18 6.1 101260 100
2005-01-28 08:01:56 51°13.685 2°55.828 6.3 26 6.1 101250 100
2005-01-28 08:02:01 51°13.69 2°55.816 5.2 35 6.1 101250 100
2005-01-28 08:02:06 51°13.694 2°55.806 4.5 34 6.1 101260 100
2005-01-28 08:02:10 51°13.699 2°55.797 7 31 6.1 101260 100
2005-01-28 08:02:16 51°13.705 2°55.784 8 37 6.1 101260 100
2005-01-28 08:02:21 51°13.71 2°55.774 9.6 31 6.1 101260 100
2005-01-28 08:02:26 51°13.715 2°55.764 8.9 24 6.1 101260 100
2005-01-28 08:02:30 51°13.719 2°55.755 9.6 25 6.1 101260 100
2005-01-28 08:02:36 51°13.727 2°55.741 7.4 30 6.1 101260 100
2005-01-28 08:02:41 51°13.733 2°55.731 8.6 39 6.1 101260 100
2005-01-28 08:02:46 51°13.739 2°55.721 7.4 21 6.1 101260 100
2005-01-28 08:02:51 51°13.746 2°55.711 8.1 21 6.1 101260 100
2005-01-28 08:02:56 51°13.752 2°55.702 9.1 24 6.1 101250 100
2005-01-28 08:03:01 51°13.76 2°55.692 9.7 28 6.1 101250 100
2005-01-28 08:03:06 51°13.767 2°55.684 8.9 19 6.1 101250 100
2005-01-28 08:03:10 51°13.774 2°55.677 8.2 23 6.1 101250 100
2005-01-28 08:03:16 51°13.783 2°55.668 9.4 16 6.1 101250 100
2005-01-28 08:03:20 51°13.791 2°55.66 8.7 20 6.1 101250 100
2005-01-28 08:03:26 51°13.8 2°55.651 9.9 21 6.1 101250 100
2005-01-28 08:03:30 51°13.808 2°55.645 9.8 16 6.1 101250 100
2005-01-28 08:03:36 51°13.82 2°55.635 9.4 16 6.1 101260 100
2005-01-28 08:03:41 51°13.83 2°55.628 9.9 24 6.1 101260 100
2005-01-28 08:03:46 51°13.841 2°55.62 10 14 6.1 101250 100
2005-01-28 08:03:51 51°13.852 2°55.612 10.9 16 6.1 101250 100
2005-01-28 08:03:56 51°13.862 2°55.604 10.5 12 6.1 101250 100
2005-01-28 08:04:01 51°13.873 2°55.596 9.9 17 6.1 101250 100
2005-01-28 08:04:06 51°13.884 2°55.588 11.4 21 6.1 101240 100
2005-01-28 08:04:11 51°13.895 2°55.58 9.7 16 6.1 101240 100
2005-01-28 08:04:16 51°13.905 2°55.572 10.3 18 6.1 101240 100
2005-01-28 08:04:21 51°13.917 2°55.565 10.9 18 6.1 101240 100
2005-01-28 08:04:26 51°13.928 2°55.557 10.6 18 6.1 101240 100
2005-01-28 08:04:31 51°13.939 2°55.549 11.5 18 6.1 101240 100
2005-01-28 08:04:36 51°13.95 2°55.541 10.8 17 6.1 101250 100
2005-01-28 08:04:40 51°13.961 2°55.533 9.5 10 6.1 101250 100
2005-01-28 08:04:46 51°13.973 2°55.524 9.4 16 6.1 101250 100
2005-01-28 08:04:51 51°13.985 2°55.516 10.8 17 6.1 101250 100
2005-01-28 08:04:56 51°13.998 2°55.507 10.2 16 6 101250 100
2005-01-28 08:05:00 51°14.007 2°55.501 9.6 19 6 101250 100
2005-01-28 08:05:06 51°14.02 2°55.492 10.4 11 6.1 101250 100
2005-01-28 08:05:11 51°14.032 2°55.484 10.6 16 6.1 101250 100
2005-01-28 08:05:16 51°14.045 2°55.474 10.9 15 6 101250 100
2005-01-28 08:05:20 51°14.054 2°55.468 10.5 17 6 101250 100
2005-01-28 08:05:26 51°14.067 2°55.459 10.2 18 6 101250 100
2005-01-28 08:05:31 51°14.079 2°55.45 9.2 7 6 101250 100
2005-01-28 08:05:36 51°14.092 2°55.441 10.3 20 6 101250 100
2005-01-28 08:05:40 51°14.103 2°55.432 11.1 19 6 101250 100
2005-01-28 08:05:46 51°14.116 2°55.422 9.6 9 6 101250 100
2005-01-28 08:05:51 51°14.129 2°55.413 10.4 11 6 101250 100
2005-01-28 08:05:56 51°14.141 2°55.404 10.6 15 6 101250 100
2005-01-28 08:06:00 51°14.152 2°55.394 10.5 15 6 101250 100
2005-01-28 08:06:06 51°14.165 2°55.382 8.4 16 6 101240 100
2005-01-28 08:06:10 51°14.175 2°55.371 9.2 23 6 101240 100
2005-01-28 08:06:16 51°14.188 2°55.358 11.2 17 6 101240 100
2005-01-28 08:06:21 51°14.199 2°55.346 9.2 13 6 101240 100
2005-01-28 08:06:26 51°14.21 2°55.332 9.3 13 6 101240 100
2005-01-28 08:06:31 51°14.222 2°55.317 12.1 25 6 101240 100
2005-01-28 08:06:36 51°14.232 2°55.303 10.4 24 6 101240 100
2005-01-28 08:06:41 51°14.243 2°55.287 10.4 30 6 101240 100
2005-01-28 08:06:46 51°14.253 2°55.272 10.8 25 6 101240 100
2005-01-28 08:06:51 51°14.264 2°55.254 9.7 24 6 101240 100
2005-01-28 08:06:56 51°14.273 2°55.239 10 27 6 101240 100
2005-01-28 08:07:01 51°14.283 2°55.221 8.1 30 6 101240 100
2005-01-28 08:07:06 51°14.292 2°55.204 10.5 31 6 101240 100
2005-01-28 08:07:11 51°14.302 2°55.184 11.5 30 6 101240 100
2005-01-28 08:07:16 51°14.311 2°55.167 8.8 23 6 101240 100
2005-01-28 08:07:21 51°14.319 2°55.149 9.9 26 6 101240 100
2005-01-28 08:07:26 51°14.328 2°55.13 10.6 27 6 101240 100
2005-01-28 08:07:30 51°14.335 2°55.114 13 35 6 101240 100
2005-01-28 08:07:36 51°14.347 2°55.088 11.9 40 6 101250 100
2005-01-28 08:07:41 51°14.354 2°55.071 12.7 40 6 101250 100
2005-01-28 08:07:46 51°14.363 2°55.05 12.7 38 6 101240 100
2005-01-28 08:07:50 51°14.371 2°55.03 14.1 37 6 101240 100
2005-01-28 08:07:56 51°14.381 2°55.005 13.8 39 6 101230 100
2005-01-28 08:08:01 51°14.389 2°54.987 13.5 32 6 101230 100
2005-01-28 08:08:06 51°14.399 2°54.966 13.6 33 6 101220 100
2005-01-28 08:08:11 51°14.41 2°54.944 15 31 6 101220 100
2005-01-28 08:08:16 51°14.42 2°54.925 15 32 6 101220 100
2005-01-28 08:08:20 51°14.43 2°54.908 14 34 6 101220 100
2005-01-28 08:08:26 51°14.443 2°54.888 14.3 28 6 101220 100
2005-01-28 08:08:30 51°14.453 2°54.873 14.6 22 6 101220 100
2005-01-28 08:08:36 51°14.469 2°54.849 14.7 25 6 101210 100
2005-01-28 08:08:40 51°14.481 2°54.833 13.4 23 6 101210 100
2005-01-28 08:08:46 51°14.495 2°54.813 14.6 22 6 101200 100
2005-01-28 08:08:51 51°14.51 2°54.794 15.2 19 6 101200 100
2005-01-28 08:08:56 51°14.523 2°54.778 14.6 22 6 101200 100
2005-01-28 08:09:00 51°14.535 2°54.762 14.2 19 6 101200 100
2005-01-28 08:09:06 51°14.55 2°54.743 15.9 25 6 101200 100
2005-01-28 08:09:11 51°14.565 2°54.724 15.2 20 6 101200 100
2005-01-28 08:09:16 51°14.578 2°54.709 14.9 17 6 101200 100
2005-01-28 08:09:21 51°14.593 2°54.691 14.5 23 6 101200 100
2005-01-28 08:09:26 51°14.607 2°54.675 14.3 22 6 101200 100
2005-01-28 08:09:31 51°14.622 2°54.659 14.3 18 6 101200 100
2005-01-28 08:09:36 51°14.636 2°54.643 14.3 21 6 101200 100
2005-01-28 08:09:41 51°14.65 2°54.627 14.3 19 6 101200 100
2005-01-28 08:09:46 51°14.666 2°54.611 15.1 20 6 101200 100
2005-01-28 08:09:51 51°14.68 2°54.597 14.9 19 6 101200 100
2005-01-28 08:09:56 51°14.696 2°54.582 15.2 15 6 101200 100
2005-01-28 08:10:01 51°14.711 2°54.568 15 17 6 101200 100
2005-01-28 08:10:06 51°14.727 2°54.554 14.7 16 6 101200 100
2005-01-28 08:10:10 51°14.739 2°54.543 15.7 17 6 101200 100
2005-01-28 08:10:16 51°14.759 2°54.527 14.1 16 6 101210 100
2005-01-28 08:10:21 51°14.775 2°54.512 13.9 12 6 101210 100
2005-01-28 08:10:26 51°14.789 2°54.5 15.8 14 6 101210 100
2005-01-28 08:10:31 51°14.805 2°54.486 15.9 14 6 101210 100
2005-01-28 08:10:36 51°14.82 2°54.473 14.5 16 6 101210 100
2005-01-28 08:10:41 51°14.837 2°54.459 16.8 18 6 101210 100
2005-01-28 08:10:46 51°14.853 2°54.445 13.9 17 6 101210 100
2005-01-28 08:10:51 51°14.868 2°54.431 13.4 18 6 101210 100
2005-01-28 08:10:56 51°14.881 2°54.419 15.1 14 6 101210 100
2005-01-28 08:11:01 51°14.898 2°54.405 15.4 16 6 101210 100
2005-01-28 08:11:05 51°14.911 2°54.393 13.9 14 6 101210 100
2005-01-28 08:11:11 51°14.927 2°54.379 14.2 13 6 101210 100
2005-01-28 08:11:16 51°14.943 2°54.365 14.9 17 6 101210 100
2005-01-28 08:11:21 51°14.957 2°54.351 14.1 19 6 101210 100
2005-01-28 08:11:26 51°14.972 2°54.338 16.5 20 6 101210 100
2005-01-28 08:11:30 51°14.984 2°54.327 14.4 17 6 101210 100
2005-01-28 08:11:36 51°15.002 2°54.31 15.3 18 6 101210 100
2005-01-28 08:11:40 51°15.015 2°54.297 15.2 18 6 101210 100
2005-01-28 08:11:46 51°15.031 2°54.282 13.6 14 6 101200 100
2005-01-28 08:11:50 51°15.043 2°54.271 15.4 16 6 101200 100
2005-01-28 08:11:56 51°15.061 2°54.254 14 17 6 101210 100
2005-01-28 08:12:01 51°15.074 2°54.24 12.5 20 6 101210 100
2005-01-28 08:12:06 51°15.088 2°54.227 15 22 6 101210 100
2005-01-28 08:12:11 51°15.102 2°54.213 15.3 13 6 101210 100
2005-01-28 08:12:16 51°15.119 2°54.198 13.6 19 6 101200 100
2005-01-28 08:12:21 51°15.134 2°54.184 15.6 16 6 101200 100
2005-01-28 08:12:26 51°15.15 2°54.17 14.6 18 6 101200 100
2005-01-28 08:12:30 51°15.162 2°54.159 14 16 6 101200 100
2005-01-28 08:12:36 51°15.18 2°54.144 15.2 14 6 101210 100
2005-01-28 08:12:41 51°15.195 2°54.13 14.1 14 6 101210 100
2005-01-28 08:12:46 51°15.21 2°54.116 14.8 19 6 101200 100
2005-01-28 08:12:51 51°15.228 2°54.101 15.5 16 6 101200 100
2005-01-28 08:12:56 51°15.241 2°54.09 15.8 17 6 101200 100
2005-01-28 08:13:01 51°15.257 2°54.076 15 12 6 101200 100
2005-01-28 08:13:06 51°15.273 2°54.063 15.9 15 6 101200 100
2005-01-28 08:13:11 51°15.288 2°54.049 15.4 15 6 101200 100
2005-01-28 08:13:16 51°15.304 2°54.034 14.8 17 6 101200 100
2005-01-28 08:13:20 51°15.318 2°54.022 14.2 15 6 101200 100
2005-01-28 08:13:26 51°15.336 2°54.007 13.8 16 6 101210 100
2005-01-28 08:13:31 51°15.349 2°53.995 16.1 17 6 101210 100
2005-01-28 08:13:36 51°15.366 2°53.979 15.7 15 6 101200 100
2005-01-28 08:13:41 51°15.382 2°53.965 16.1 14 6 101200 100
2005-01-28 08:13:46 51°15.398 2°53.951 15.3 18 6 101210 100
2005-01-28 08:13:50 51°15.411 2°53.939 15.3 17 6 101210 100
2005-01-28 08:13:56 51°15.429 2°53.922 16.2 16 6 101200 100
2005-01-28 08:14:00 51°15.444 2°53.909 15.9 16 6 101200 100
2005-01-28 08:14:05 51°15.46 2°53.895 15.4 14 6 101210 100
2005-01-28 08:14:11 51°15.478 2°53.878 15.3 15 6 101210 100
2005-01-28 08:14:16 51°15.493 2°53.864 16.7 17 6 101200 100
2005-01-28 08:14:20 51°15.507 2°53.851 16.2 15 6 101200 100
2005-01-28 08:14:26 51°15.525 2°53.834 15.8 18 6.1 101200 100
2005-01-28 08:14:30 51°15.537 2°53.823 16.7 15 6.1 101200 100
2005-01-28 08:14:35 51°15.554 2°53.807 15.4 15 6 101210 100
2005-01-28 08:14:41 51°15.572 2°53.79 13.6 15 6 101210 100
2005-01-28 08:14:46 51°15.586 2°53.776 14.6 17 6 101200 100
2005-01-28 08:14:51 51°15.601 2°53.763 15.4 21 6 101200 100
2005-01-28 08:14:56 51°15.617 2°53.748 16 13 6.1 101200 100
2005-01-28 08:15:01 51°15.633 2°53.733 15 15 6.1 101200 100
2005-01-28 08:15:06 51°15.648 2°53.718 15.6 15 6 101200 100
2005-01-28 08:15:11 51°15.664 2°53.703 14.5 17 6 101200 100
2005-01-28 08:15:16 51°15.681 2°53.687 15.2 14 6 101210 100
2005-01-28 08:15:21 51°15.696 2°53.673 15.7 19 6 101210 100
2005-01-28 08:15:26 51°15.711 2°53.659 14.1 15 6 101210 100
2005-01-28 08:15:31 51°15.725 2°53.645 15.5 15 6 101210 100
2005-01-28 08:15:36 51°15.742 2°53.628 14.6 15 6 101200 100
2005-01-28 08:15:41 51°15.756 2°53.615 16.8 15 6 101200 100
2005-01-28 08:15:46 51°15.773 2°53.6 14.9 17 6 101200 100
2005-01-28 08:15:51 51°15.788 2°53.586 14.8 16 6 101200 100
2005-01-28 08:15:56 51°15.804 2°53.571 14.4 15 6 101200 100
2005-01-28 08:16:00 51°15.817 2°53.559 15.7 15 6 101200 100
2005-01-28 08:16:06 51°15.834 2°53.543 14.7 15 6 101210 100
2005-01-28 08:16:10 51°15.847 2°53.531 15.5 17 6 101210 100
2005-01-28 08:16:16 51°15.866 2°53.513 16.2 18 6 101200 100
2005-01-28 08:16:21 51°15.88 2°53.501 14.9 15 6 101200 100
2005-01-28 08:16:26 51°15.895 2°53.486 14.8 15 6 101200 100
2005-01-28 08:16:31 51°15.911 2°53.472 15 16 6 101200 100
2005-01-28 08:16:36 51°15.925 2°53.459 15.1 17 6 101210 100
2005-01-28 08:16:41 51°15.942 2°53.445 15 15 6 101210 100
2005-01-28 08:16:46 51°15.958 2°53.433 16.1 13 6 101210 100
2005-01-28 08:16:50 51°15.971 2°53.422 14.7 16 6 101210 100
2005-01-28 08:16:56 51°15.989 2°53.409 15.8 13 6 101200 100
2005-01-28 08:17:01 51°16.006 2°53.396 15.9 14 6 101200 100
2005-01-28 08:17:06 51°16.021 2°53.384 15.2 14 6 101210 100
2005-01-28 08:17:10 51°16.034 2°53.374 14.5 13 6 101210 100
2005-01-28 08:17:16 51°16.053 2°53.359 14.8 13 6 101210 100
2005-01-28 08:17:21 51°16.07 2°53.347 15.5 18 6 101210 100
2005-01-28 08:17:26 51°16.086 2°53.335 13.7 13 6 101200 100
2005-01-28 08:17:31 51°16.1 2°53.325 15.7 14 6 101200 100
2005-01-28 08:17:36 51°16.118 2°53.311 14.3 15 6 101210 100
2005-01-28 08:17:41 51°16.133 2°53.3 13.9 17 6 101210 100
2005-01-28 08:17:46 51°16.149 2°53.287 15 14 6 101210 100
2005-01-28 08:17:51 51°16.167 2°53.274 15.9 16 6 101210 100
2005-01-28 08:17:56 51°16.183 2°53.261 15.7 10 6 101210 100
2005-01-28 08:18:00 51°16.196 2°53.25 14.5 13 6 101210 100
2005-01-28 08:18:06 51°16.214 2°53.237 15.8 12 6.1 101210 100
2005-01-28 08:18:11 51°16.228 2°53.225 16.3 13 6.1 101210 100
2005-01-28 08:18:16 51°16.246 2°53.211 15.7 14 6 101200 100
2005-01-28 08:18:21 51°16.263 2°53.198 15.6 15 6 101200 100
2005-01-28 08:18:26 51°16.279 2°53.185 15 13 6 101210 100
2005-01-28 08:18:31 51°16.293 2°53.174 15.7 13 6 101210 100
2005-01-28 08:18:36 51°16.31 2°53.161 15.6 13 6.1 101210 100
2005-01-28 08:18:41 51°16.327 2°53.148 15.2 14 6.1 101210 100
2005-01-28 08:18:46 51°16.341 2°53.136 16 13 6 101210 100
2005-01-28 08:18:50 51°16.354 2°53.126 15.8 14 6 101210 100
2005-01-28 08:18:56 51°16.375 2°53.11 14.5 13 6.1 101210 100
2005-01-28 08:19:01 51°16.389 2°53.099 15.1 13 6.1 101210 100
2005-01-28 08:19:06 51°16.405 2°53.087 15.2 15 6.1 101200 100
2005-01-28 08:19:10 51°16.417 2°53.078 16.1 12 6.1 101200 100
2005-01-28 08:19:16 51°16.437 2°53.062 15.3 13 6.1 101200 100
2005-01-28 08:19:21 51°16.453 2°53.049 16.2 11 6.1 101200 100
2005-01-28 08:19:26 51°16.469 2°53.037 14.9 15 6.1 101210 100
2005-01-28 08:19:31 51°16.484 2°53.025 16.1 10 6.1 101210 100
2005-01-28 08:19:36 51°16.501 2°53.012 15.3 10 6.1 101210 100
2005-01-28 08:19:41 51°16.518 2°52.999 15.7 12 6.1 101210 100
2005-01-28 08:19:46 51°16.533 2°52.988 16.4 13 6.1 101210 100
2005-01-28 08:19:51 51°16.551 2°52.974 15.1 14 6.1 101210 100
2005-01-28 08:19:56 51°16.567 2°52.962 16.4 15 6.1 101210 100
2005-01-28 08:20:00 51°16.58 2°52.952 15.1 14 6.1 101210 100
2005-01-28 08:20:06 51°16.598 2°52.938 15.8 14 6.1 101210 100
2005-01-28 08:20:11 51°16.613 2°52.927 16.5 16 6.1 101210 100
2005-01-28 08:20:16 51°16.63 2°52.914 15.2 12 6.1 101210 100
2005-01-28 08:20:21 51°16.646 2°52.902 16.3 12 6.1 101210 100
2005-01-28 08:20:26 51°16.664 2°52.89 14.6 14 6.1 101210 100
2005-01-28 08:20:31 51°16.677 2°52.879 14.9 14 6.1 101210 100
2005-01-28 08:20:36 51°16.695 2°52.866 16.5 14 6.1 101210 100
2005-01-28 08:20:41 51°16.711 2°52.853 16.3 12 6.1 101210 100
2005-01-28 08:20:46 51°16.728 2°52.84 13.7 16 6.1 101200 100
2005-01-28 08:20:51 51°16.741 2°52.83 14.5 9 6.1 101200 100
2005-01-28 08:20:56 51°16.759 2°52.816 15 12 6.1 101210 100
2005-01-28 08:21:01 51°16.775 2°52.806 15.3 14 6.1 101210 100
2005-01-28 08:21:06 51°16.791 2°52.793 15.7 16 6.1 101200 100
2005-01-28 08:21:11 51°16.805 2°52.782 15.6 13 6.1 101200 100
2005-01-28 08:21:16 51°16.823 2°52.77 13.5 15 6.1 101210 100
2005-01-28 08:21:21 51°16.836 2°52.76 13.7 15 6.1 101210 100
2005-01-28 08:21:26 51°16.852 2°52.748 15.3 12 6.1 101210 100
2005-01-28 08:21:31 51°16.866 2°52.737 16.6 15 6.1 101210 100
2005-01-28 08:21:36 51°16.883 2°52.724 14.3 17 6.1 101220 100
2005-01-28 08:21:41 51°16.9 2°52.71 16.4 16 6.1 101220 100
2005-01-28 08:21:46 51°16.914 2°52.697 13.6 19 6.1 101210 100
2005-01-28 08:21:51 51°16.928 2°52.685 14.3 16 6.1 101210 100
2005-01-28 08:21:56 51°16.943 2°52.671 14 18 6.1 101200 100
2005-01-28 08:22:01 51°16.958 2°52.657 17.6 16 6.1 101200 100
2005-01-28 08:22:06 51°16.974 2°52.643 14.7 19 6.1 101200 100
2005-01-28 08:22:11 51°16.989 2°52.629 14 19 6.1 101200 100
2005-01-28 08:22:16 51°17.005 2°52.615 14.8 14 6.1 101200 100
2005-01-28 08:22:20 51°17.017 2°52.604 15.9 16 6.1 101200 100
2005-01-28 08:22:24 51°17.029 2°52.593 14.1 18 6.1 101210 100
2005-01-28 08:22:31 51°17.05 2°52.574 14.8 17 6.1 101210 100
2005-01-28 08:22:36 51°17.063 2°52.56 15.1 17 6.1 101200 100
2005-01-28 08:22:41 51°17.078 2°52.545 15.5 16 6.1 101200 100
2005-01-28 08:22:45 51°17.091 2°52.532 15.3 21 6.1 101210 100
2005-01-28 08:22:51 51°17.106 2°52.517 15.8 18 6.1 101210 100
2005-01-28 08:22:56 51°17.121 2°52.501 13.3 16 6.1 101210 100
2005-01-28 08:23:01 51°17.134 2°52.488 14.6 24 6.1 101210 100
2005-01-28 08:23:06 51°17.148 2°52.473 15.9 17 6.1 101210 100
2005-01-28 08:23:10 51°17.16 2°52.461 15.1 19 6.1 101210 100
2005-01-28 08:23:15 51°17.176 2°52.444 14.3 17 6.1 101210 100
2005-01-28 08:23:21 51°17.193 2°52.428 15.1 17 6.1 101210 100
2005-01-28 08:23:26 51°17.206 2°52.413 16.2 21 6.1 101210 100
2005-01-28 08:23:31 51°17.22 2°52.399 14 17 6.1 101210 100
2005-01-28 08:23:36 51°17.235 2°52.381 15.5 20 6.2 101200 100
2005-01-28 08:23:41 51°17.249 2°52.365 17.7 20 6.2 101200 100
2005-01-28 08:23:46 51°17.264 2°52.348 16.3 21 6.2 101200 100
2005-01-28 08:23:51 51°17.276 2°52.333 15.2 23 6.2 101200 100
2005-01-28 08:23:56 51°17.292 2°52.315 16.4 24 6.2 101200 100
2005-01-28 08:24:01 51°17.306 2°52.299 16.4 19 6.2 101200 100
2005-01-28 08:24:06 51°17.322 2°52.282 17.5 20 6.2 101210 100
2005-01-28 08:24:11 51°17.336 2°52.264 16.3 20 6.2 101210 100
2005-01-28 08:24:16 51°17.349 2°52.249 16.6 24 6.2 101200 100
2005-01-28 08:24:20 51°17.362 2°52.234 16.5 20 6.2 101200 100
2005-01-28 08:24:26 51°17.378 2°52.216 15.8 22 6.2 101200 100
2005-01-28 08:24:30 51°17.389 2°52.202 14.6 20 6.2 101200 100
2005-01-28 08:24:36 51°17.406 2°52.184 15.7 19 6.2 101200 100
2005-01-28 08:24:40 51°17.419 2°52.168 16.1 20 6.2 101200 100
2005-01-28 08:24:46 51°17.434 2°52.149 15.2 19 6.2 101200 100
2005-01-28 08:24:50 51°17.446 2°52.137 15.5 22 6.2 101200 100
2005-01-28 08:24:56 51°17.462 2°52.117 17 18 6.2 101200 100
2005-01-28 08:25:00 51°17.476 2°52.102 17 24 6.2 101200 100
2005-01-28 08:25:06 51°17.491 2°52.085 18.2 19 6.2 101200 100
2005-01-28 08:25:11 51°17.504 2°52.068 16.9 22 6.2 101200 100
2005-01-28 08:25:16 51°17.519 2°52.048 14.1 22 6.2 101200 100
2005-01-28 08:25:21 51°17.531 2°52.03 14.1 27 6.2 101200 100
2005-01-28 08:25:26 51°17.543 2°52.011 15.8 24 6.2 101210 100
2005-01-28 08:25:31 51°17.556 2°51.99 16.7 26 6.2 101210 100
2005-01-28 08:25:36 51°17.569 2°51.969 14.4 26 6.2 101200 100
2005-01-28 08:25:41 51°17.581 2°51.95 14.8 26 6.2 101200 100
2005-01-28 08:25:46 51°17.593 2°51.93 13.9 24 6.2 101200 100
2005-01-28 08:25:51 51°17.604 2°51.912 15.7 24 6.2 101200 100
2005-01-28 08:25:56 51°17.618 2°51.89 15.8 24 6.2 101190 100
2005-01-28 08:26:00 51°17.628 2°51.871 15.5 25 6.2 101190 100
2005-01-28 08:26:05 51°17.64 2°51.849 14.7 29 6.2 101200 100
2005-01-28 08:26:11 51°17.652 2°51.825 13.5 29 6.2 101200 100
2005-01-28 08:26:16 51°17.663 2°51.803 14.6 27 6.2 101200 100
2005-01-28 08:26:21 51°17.674 2°51.781 13.8 28 6.2 101200 100
2005-01-28 08:26:26 51°17.685 2°51.758 15.5 31 6.2 101200 100
2005-01-28 08:26:31 51°17.698 2°51.734 14.8 28 6.2 101200 100
2005-01-28 08:26:36 51°17.708 2°51.713 13.6 29 6.2 101200 100
2005-01-28 08:26:41 51°17.72 2°51.69 13.4 26 6.2 101200 100
2005-01-28 08:26:46 51°17.731 2°51.668 15.2 28 6.2 101200 100
2005-01-28 08:26:51 51°17.741 2°51.649 14.8 27 6.2 101200 100
2005-01-28 08:26:56 51°17.753 2°51.625 15.4 28 6.2 101200 100
2005-01-28 08:27:00 51°17.764 2°51.605 15.3 25 6.2 101200 100
2005-01-28 08:27:06 51°17.777 2°51.58 14.9 30 6.2 101210 100
2005-01-28 08:27:10 51°17.786 2°51.562 14.2 27 6.2 101210 100
2005-01-28 08:27:16 51°17.799 2°51.536 14.5 28 6.2 101200 100
2005-01-28 08:27:20 51°17.81 2°51.516 14.7 29 6.2 101200 100
2005-01-28 08:27:25 51°17.821 2°51.493 15.2 25 6.2 101200 100
2005-01-28 08:27:31 51°17.836 2°51.465 17.1 28 6.2 101200 100
2005-01-28 08:27:36 51°17.846 2°51.444 14.6 26 6.3 101200 100
2005-01-28 08:27:40 51°17.855 2°51.425 14.8 26 6.3 101200 100
2005-01-28 08:27:46 51°17.868 2°51.4 15.2 28 6.3 101200 100
2005-01-28 08:27:51 51°17.878 2°51.379 14.2 25 6.3 101200 100
2005-01-28 08:27:56 51°17.892 2°51.353 13.4 30 6.3 101210 100
2005-01-28 08:28:00 51°17.901 2°51.334 15.1 30 6.3 101210 100
2005-01-28 08:28:05 51°17.913 2°51.312 15.4 27 6.3 101200 100
2005-01-28 08:28:11 51°17.925 2°51.285 15.3 29 6.3 101200 100
2005-01-28 08:28:16 51°17.938 2°51.263 14.5 26 6.3 101200 100
2005-01-28 08:28:21 51°17.95 2°51.241 14.5 27 6.3 101200 100
2005-01-28 08:28:26 51°17.961 2°51.22 15 24 6.3 101210 100
2005-01-28 08:28:30 51°17.971 2°51.2 14.8 26 6.3 101210 100
2005-01-28 08:28:36 51°17.985 2°51.174 16 27 6.3 101200 100
2005-01-28 08:28:41 51°17.997 2°51.15 14.9 26 6.3 101200 100
2005-01-28 08:28:46 51°18.009 2°51.128 15.8 28 6.3 101210 100
2005-01-28 08:28:50 51°18.018 2°51.109 15.8 24 6.3 101210 100
2005-01-28 08:28:56 51°18.032 2°51.082 16 28 6.3 101210 100
2005-01-28 08:29:01 51°18.044 2°51.059 15.8 30 6.3 101210 100
2005-01-28 08:29:06 51°18.055 2°51.037 15.1 26 6.3 101210 100
2005-01-28 08:29:11 51°18.066 2°51.013 16.4 26 6.3 101210 100
2005-01-28 08:29:16 51°18.079 2°50.989 14 29 6.3 101200 100
2005-01-28 08:29:21 51°18.088 2°50.968 14.8 29 6.3 101200 100
2005-01-28 08:29:26 51°18.099 2°50.944 14.4 29 6.3 101200 100
2005-01-28 08:29:30 51°18.108 2°50.925 15.5 29 6.3 101200 100
2005-01-28 08:29:36 51°18.121 2°50.894 13.6 30 6.3 101200 100
2005-01-28 08:29:41 51°18.131 2°50.871 15.7 29 6.3 101200 100
2005-01-28 08:29:46 51°18.141 2°50.846 15.2 32 6.3 101200 100
2005-01-28 08:29:51 51°18.152 2°50.823 14 28 6.3 101200 100
2005-01-28 08:29:56 51°18.163 2°50.796 14.6 27 6.3 101200 100
2005-01-28 08:30:01 51°18.173 2°50.774 14.8 29 6.3 101200 100
2005-01-28 08:30:06 51°18.183 2°50.75 14.7 27 6.3 101200 100
2005-01-28 08:30:11 51°18.193 2°50.725 13.5 28 6.3 101200 100
2005-01-28 08:30:16 51°18.203 2°50.7 15.4 30 6.3 101200 100
2005-01-28 08:30:21 51°18.214 2°50.675 14.6 30 6.3 101200 100
2005-01-28 08:30:26 51°18.224 2°50.652 14.3 29 6.3 101210 100
2005-01-28 08:30:31 51°18.233 2°50.631 14.5 29 6.3 101210 100
2005-01-28 08:30:36 51°18.243 2°50.605 16.2 29 6.3 101200 100
2005-01-28 08:30:41 51°18.255 2°50.577 16 25 6.3 101200 100
2005-01-28 08:30:46 51°18.264 2°50.554 15.6 31 6.3 101200 100
2005-01-28 08:30:51 51°18.273 2°50.532 15.6 29 6.3 101200 100
2005-01-28 08:30:56 51°18.283 2°50.507 14 28 6.3 101200 100
2005-01-28 08:31:01 51°18.294 2°50.485 14.7 30 6.3 101200 100
2005-01-28 08:31:06 51°18.303 2°50.462 15 26 6.3 101210 100
2005-01-28 08:31:11 51°18.313 2°50.439 14 25 6.3 101210 100
2005-01-28 08:31:16 51°18.324 2°50.413 14 34 6.3 101200 100
2005-01-28 08:31:21 51°18.334 2°50.39 14.3 29 6.3 101200 100
2005-01-28 08:31:26 51°18.345 2°50.365 14.1 26 6.3 101200 100
2005-01-28 08:31:31 51°18.355 2°50.341 14.4 26 6.3 101200 100
2005-01-28 08:31:36 51°18.365 2°50.318 15.3 27 6.3 101200 100
2005-01-28 08:31:41 51°18.375 2°50.294 14.8 28 6.3 101200 100
2005-01-28 08:31:46 51°18.386 2°50.269 14.4 27 6.3 101200 100
2005-01-28 08:31:51 51°18.395 2°50.247 14.5 28 6.3 101200 100
2005-01-28 08:31:56 51°18.407 2°50.219 14 29 6.3 101210 100
2005-01-28 08:32:01 51°18.417 2°50.194 15.2 31 6.3 101210 100
2005-01-28 08:32:06 51°18.428 2°50.168 13.3 29 6.3 101200 100
2005-01-28 08:32:11 51°18.437 2°50.148 14.8 28 6.3 101200 100
2005-01-28 08:32:16 51°18.448 2°50.12 14 28 6.3 101200 100
2005-01-28 08:32:21 51°18.457 2°50.097 15.3 27 6.3 101200 100
2005-01-28 08:32:26 51°18.468 2°50.073 14.4 31 6.3 101200 100
2005-01-28 08:32:31 51°18.477 2°50.052 14.7 29 6.3 101200 100
2005-01-28 08:32:36 51°18.489 2°50.022 16 32 6.3 101200 100
2005-01-28 08:32:41 51°18.498 2°50 15.7 31 6.3 101200 100
2005-01-28 08:32:46 51°18.509 2°49.977 15.3 32 6.3 101200 100
2005-01-28 08:32:51 51°18.519 2°49.952 15.9 31 6.3 101200 100
2005-01-28 08:32:56 51°18.529 2°49.928 13.5 28 6.3 101200 100
2005-01-28 08:33:01 51°18.539 2°49.904 14.4 32 6.3 101200 100
2005-01-28 08:33:06 51°18.547 2°49.882 16 28 6.3 101200 100
2005-01-28 08:33:11 51°18.559 2°49.854 15.2 29 6.3 101200 100
2005-01-28 08:33:16 51°18.568 2°49.833 14.5 34 6.3 101190 100
2005-01-28 08:33:21 51°18.579 2°49.809 15.2 29 6.3 101190 100
2005-01-28 08:33:26 51°18.59 2°49.785 15.6 30 6.3 101200 100
2005-01-28 08:33:30 51°18.599 2°49.766 13.2 32 6.3 101200 100
2005-01-28 08:33:36 51°18.61 2°49.739 14.6 28 6.3 101200 100
2005-01-28 08:33:40 51°18.62 2°49.717 16.2 28 6.3 101200 100
2005-01-28 08:33:46 51°18.631 2°49.69 14.5 30 6.3 101200 100
2005-01-28 08:33:50 51°18.64 2°49.671 14.5 31 6.3 101200 100
2005-01-28 08:33:56 51°18.651 2°49.646 15.5 26 6.3 101200 100
2005-01-28 08:34:01 51°18.662 2°49.622 14.6 30 6.3 101200 100
2005-01-28 08:34:06 51°18.672 2°49.599 16.2 29 6.3 101200 100
2005-01-28 08:34:11 51°18.685 2°49.572 15.5 31 6.3 101200 100
2005-01-28 08:34:16 51°18.694 2°49.551 15.9 27 6.3 101200 100
2005-01-28 08:34:21 51°18.705 2°49.528 16.3 30 6.3 101200 100
2005-01-28 08:34:26 51°18.716 2°49.504 14.9 27 6.3 101200 100
2005-01-28 08:34:31 51°18.725 2°49.482 15 30 6.3 101200 100
2005-01-28 08:34:36 51°18.736 2°49.457 15.2 28 6.4 101200 100
2005-01-28 08:34:41 51°18.746 2°49.433 15.7 29 6.4 101200 100
2005-01-28 08:34:46 51°18.758 2°49.408 14.2 26 6.3 101200 100
2005-01-28 08:34:50 51°18.766 2°49.39 17.3 31 6.3 101200 100
2005-01-28 08:34:56 51°18.779 2°49.36 13.6 28 6.4 101210 100
2005-01-28 08:35:00 51°18.787 2°49.34 15.7 27 6.4 101210 100
2005-01-28 08:35:06 51°18.799 2°49.313 16.1 29 6.4 101200 100
2005-01-28 08:35:11 51°18.81 2°49.289 15.4 30 6.4 101200 100
2005-01-28 08:35:16 51°18.819 2°49.266 15 26 6.4 101200 100
2005-01-28 08:35:21 51°18.831 2°49.241 14.3 34 6.4 101200 100
2005-01-28 08:35:26 51°18.839 2°49.219 15.4 27 6.4 101210 100
2005-01-28 08:35:31 51°18.849 2°49.195 15.1 31 6.4 101210 100
2005-01-28 08:35:36 51°18.86 2°49.171 14.7 29 6.3 101200 100
2005-01-28 08:35:41 51°18.871 2°49.147 15.3 28 6.3 101200 100
2005-01-28 08:35:46 51°18.882 2°49.124 15.2 27 6.4 101200 100
2005-01-28 08:35:51 51°18.893 2°49.1 15.3 27 6.4 101200 100
2005-01-28 08:35:56 51°18.905 2°49.074 15 29 6.4 101210 100
2005-01-28 08:36:01 51°18.914 2°49.052 16.5 27 6.4 101210 100
2005-01-28 08:36:06 51°18.925 2°49.027 14.5 32 6.4 101200 100
2005-01-28 08:36:11 51°18.936 2°49.004 14.8 27 6.4 101200 100
2005-01-28 08:36:16 51°18.946 2°48.981 15.8 30 6.4 101200 100
2005-01-28 08:36:21 51°18.957 2°48.956 14.8 31 6.4 101200 100
2005-01-28 08:36:26 51°18.968 2°48.932 14.3 28 6.4 101210 100
2005-01-28 08:36:30 51°18.976 2°48.914 15.5 29 6.4 101210 100
2005-01-28 08:36:36 51°18.989 2°48.884 16.5 29 6.4 101200 100
2005-01-28 08:36:41 51°19 2°48.858 16.4 29 6.4 101200 100
2005-01-28 08:36:46 51°19.011 2°48.833 14.2 30 6.4 101210 100
2005-01-28 08:36:51 51°19.02 2°48.813 14.5 29 6.4 101210 100
2005-01-28 08:36:56 51°19.032 2°48.785 15.1 31 6.4 101210 100
2005-01-28 08:37:00 51°19.041 2°48.766 16 29 6.4 101210 100
2005-01-28 08:37:06 51°19.053 2°48.74 15.3 29 6.4 101210 100
2005-01-28 08:37:11 51°19.063 2°48.717 13.9 31 6.4 101210 100
2005-01-28 08:37:16 51°19.072 2°48.695 16 28 6.4 101200 100
2005-01-28 08:37:21 51°19.082 2°48.671 15.4 28 6.4 101200 100
2005-01-28 08:37:26 51°19.093 2°48.644 13.6 34 6.4 101200 100
2005-01-28 08:37:30 51°19.1 2°48.628 15.7 35 6.4 101200 100
2005-01-28 08:37:36 51°19.112 2°48.6 14 29 6.4 101200 100
2005-01-28 08:37:41 51°19.123 2°48.574 16.5 32 6.4 101200 100
2005-01-28 08:37:46 51°19.133 2°48.552 13.4 31 6.4 101210 100
2005-01-28 08:37:50 51°19.14 2°48.534 15.2 30 6.4 101210 100
2005-01-28 08:37:56 51°19.152 2°48.507 16.1 29 6.4 101200 100
2005-01-28 08:38:00 51°19.161 2°48.485 14.8 30 6.4 101200 100
2005-01-28 08:38:06 51°19.172 2°48.459 14.8 34 6.4 101200 100
2005-01-28 08:38:11 51°19.182 2°48.436 14.3 29 6.4 101200 100
2005-01-28 08:38:16 51°19.195 2°48.407 14.7 32 6.4 101200 100
2005-01-28 08:38:21 51°19.205 2°48.386 13.7 32 6.4 101200 100
2005-01-28 08:38:25 51°19.213 2°48.365 16.8 29 6.4 101210 100
2005-01-28 08:38:31 51°19.225 2°48.335 15 30 6.4 101210 100
2005-01-28 08:38:36 51°19.234 2°48.315 15.2 31 6.4 101200 100
2005-01-28 08:38:41 51°19.245 2°48.29 14.3 29 6.4 101200 100
2005-01-28 08:38:46 51°19.254 2°48.266 16.7 30 6.4 101210 100
2005-01-28 08:38:51 51°19.266 2°48.24 15.3 27 6.4 101210 100
2005-01-28 08:38:56 51°19.275 2°48.217 15.4 28 6.4 101210 100
2005-01-28 08:39:01 51°19.285 2°48.193 14.9 30 6.4 101210 100
2005-01-28 08:39:06 51°19.297 2°48.168 14.3 32 6.4 101210 100
2005-01-28 08:39:11 51°19.306 2°48.146 13 32 6.4 101210 100
2005-01-28 08:39:16 51°19.317 2°48.12 15.5 30 6.4 101210 100
2005-01-28 08:39:21 51°19.327 2°48.097 14.5 29 6.4 101210 100
2005-01-28 08:39:24 51°19.335 2°48.08 15.5 34 6.4 101210 100
2005-01-28 08:39:30 51°19.346 2°48.053 16.4 29 6.4 101210 100
2005-01-28 08:39:36 51°19.358 2°48.024 17.2 31 6.4 101200 100
2005-01-28 08:39:41 51°19.37 2°47.996 16.5 32 6.4 101200 100
2005-01-28 08:39:46 51°19.38 2°47.975 14.5 30 6.4 101210 100
2005-01-28 08:39:51 51°19.388 2°47.955 15.4 31 6.4 101210 100
2005-01-28 08:39:56 51°19.399 2°47.929 15.9 30 6.4 101200 100
2005-01-28 08:40:01 51°19.41 2°47.903 15 28 6.4 101200 100
2005-01-28 08:40:05 51°19.419 2°47.882 15.7 33 6.4 101200 100
2005-01-28 08:40:10 51°19.428 2°47.861 15.4 28 6.4 101200 100
2005-01-28 08:40:16 51°19.442 2°47.829 15.6 29 6.4 101210 100
2005-01-28 08:40:21 51°19.452 2°47.806 15.4 30 6.4 101210 100
2005-01-28 08:40:26 51°19.461 2°47.782 16.5 26 6.4 101210 100
2005-01-28 08:40:31 51°19.472 2°47.758 15.7 30 6.4 101210 100
2005-01-28 08:40:36 51°19.483 2°47.73 14.4 32 6.4 101210 100
2005-01-28 08:40:41 51°19.493 2°47.707 14.5 39 6.4 101210 100
2005-01-28 08:40:46 51°19.503 2°47.68 17.1 36 6.4 101210 100
2005-01-28 08:40:51 51°19.513 2°47.654 15 30 6.4 101210 100
2005-01-28 08:40:56 51°19.523 2°47.63 16.2 31 6.4 101210 100
2005-01-28 08:41:00 51°19.532 2°47.606 16.3 32 6.4 101210 100
2005-01-28 08:41:06 51°19.542 2°47.576 14.9 34 6.4 101210 100
2005-01-28 08:41:11 51°19.552 2°47.551 15.8 34 6.4 101210 100
2005-01-28 08:41:16 51°19.563 2°47.523 15.9 31 6.4 101200 100
2005-01-28 08:41:21 51°19.572 2°47.501 15.4 35 6.4 101200 100
2005-01-28 08:41:26 51°19.58 2°47.473 15.2 33 6.4 101210 100
2005-01-28 08:41:31 51°19.586 2°47.448 15 37 6.4 101210 100
2005-01-28 08:41:36 51°19.594 2°47.415 15.3 41 6.4 101200 100
2005-01-28 08:41:41 51°19.602 2°47.387 15.3 44 6.4 101200 100
2005-01-28 08:41:46 51°19.608 2°47.361 14.9 39 6.4 101200 100
2005-01-28 08:41:51 51°19.615 2°47.335 14.8 39 6.4 101200 100
2005-01-28 08:41:56 51°19.623 2°47.302 13.4 39 6.4 101200 100
2005-01-28 08:42:01 51°19.63 2°47.275 16.5 40 6.4 101200 100
2005-01-28 08:42:06 51°19.637 2°47.248 14.6 38 6.4 101200 100
2005-01-28 08:42:11 51°19.643 2°47.217 15.5 39 6.4 101200 100
2005-01-28 08:42:16 51°19.649 2°47.19 16.3 44 6.4 101200 100
2005-01-28 08:42:21 51°19.656 2°47.162 14.3 40 6.4 101200 100
2005-01-28 08:42:26 51°19.662 2°47.136 15.8 37 6.4 101200 100
2005-01-28 08:42:31 51°19.668 2°47.108 16 38 6.4 101200 100
2005-01-28 08:42:36 51°19.675 2°47.076 14 44 6.4 101200 100
2005-01-28 08:42:41 51°19.682 2°47.05 15.9 43 6.4 101200 100
2005-01-28 08:42:46 51°19.689 2°47.019 15.9 47 6.4 101190 100
2005-01-28 08:42:51 51°19.695 2°46.994 14.8 42 6.4 101190 100
2005-01-28 08:42:56 51°19.702 2°46.964 15.4 38 6.4 101200 100
2005-01-28 08:43:00 51°19.708 2°46.937 16.6 40 6.4 101200 100
2005-01-28 08:43:06 51°19.716 2°46.906 14.5 41 6.4 101200 100
2005-01-28 08:43:11 51°19.723 2°46.879 14.9 40 6.4 101200 100
2005-01-28 08:43:16 51°19.729 2°46.851 15.6 40 6.4 101190 100
2005-01-28 08:43:21 51°19.736 2°46.82 16 41 6.4 101190 100
2005-01-28 08:43:26 51°19.743 2°46.794 14.3 40 6.4 101190 100
2005-01-28 08:43:30 51°19.748 2°46.772 16.2 37 6.4 101190 100
2005-01-28 08:43:36 51°19.757 2°46.734 13.6 39 6.4 101200 100
2005-01-28 08:43:41 51°19.763 2°46.708 14.6 39 6.4 101200 100
2005-01-28 08:43:46 51°19.77 2°46.677 13.6 44 6.4 101210 100
2005-01-28 08:43:51 51°19.776 2°46.653 14.6 45 6.4 101210 100
2005-01-28 08:43:56 51°19.782 2°46.623 16.2 42 6.4 101200 100
2005-01-28 08:44:01 51°19.788 2°46.598 13.9 36 6.4 101200 100
2005-01-28 08:44:06 51°19.795 2°46.568 15.3 43 6.4 101210 100
2005-01-28 08:44:10 51°19.8 2°46.546 15.4 37 6.4 101210 100
2005-01-28 08:44:15 51°19.808 2°46.515 15.4 43 6.4 101200 100
2005-01-28 08:44:21 51°19.815 2°46.481 14 43 6.4 101200 100
2005-01-28 08:44:26 51°19.822 2°46.457 15.9 43 6.4 101200 100
2005-01-28 08:44:31 51°19.828 2°46.428 14.9 35 6.4 101200 100
2005-01-28 08:44:36 51°19.835 2°46.4 15.6 39 6.5 101200 100
2005-01-28 08:44:41 51°19.842 2°46.371 14.3 44 6.5 101200 100
2005-01-28 08:44:46 51°19.848 2°46.344 16.6 37 6.4 101200 100
2005-01-28 08:44:51 51°19.856 2°46.31 14.9 37 6.4 101200 100
2005-01-28 08:44:56 51°19.863 2°46.282 14.9 41 6.5 101200 100
2005-01-28 08:45:00 51°19.868 2°46.261 15 41 6.5 101200 100
2005-01-28 08:45:06 51°19.875 2°46.229 14.7 41 6.4 101200 100
2005-01-28 08:45:11 51°19.884 2°46.198 14.3 43 6.4 101200 100
2005-01-28 08:45:16 51°19.89 2°46.175 14.6 37 6.5 101210 100
2005-01-28 08:45:21 51°19.896 2°46.144 14.1 41 6.5 101210 100
2005-01-28 08:45:25 51°19.901 2°46.122 14.9 36 6.5 101200 100
2005-01-28 08:45:31 51°19.91 2°46.086 14.5 43 6.5 101200 100
2005-01-28 08:45:36 51°19.917 2°46.059 13.1 39 6.5 101210 100
2005-01-28 08:45:41 51°19.924 2°46.033 14.8 44 6.5 101210 100
2005-01-28 08:45:46 51°19.931 2°46.002 14.7 44 6.5 101210 100
2005-01-28 08:45:50 51°19.936 2°45.978 13.3 44 6.5 101210 100
2005-01-28 08:45:56 51°19.944 2°45.949 15.2 40 6.5 101220 100
2005-01-28 08:46:01 51°19.951 2°45.918 14.1 37 6.5 101220 100
2005-01-28 08:46:06 51°19.959 2°45.889 13.5 44 6.5 101210 100
2005-01-28 08:46:11 51°19.964 2°45.865 14.4 43 6.5 101210 100
2005-01-28 08:46:16 51°19.972 2°45.835 13.9 42 6.4 101200 100
2005-01-28 08:46:21 51°19.979 2°45.807 15.3 42 6.4 101200 100
2005-01-28 08:46:26 51°19.986 2°45.778 14.1 42 6.5 101220 100
2005-01-28 08:46:30 51°19.992 2°45.757 15.3 40 6.5 101220 100
2005-01-28 08:46:36 51°20.002 2°45.723 14.2 40 6.5 101210 100
2005-01-28 08:46:40 51°20.007 2°45.697 14.4 38 6.5 101210 100
2005-01-28 08:46:46 51°20.015 2°45.667 13.9 43 6.5 101200 100
2005-01-28 08:46:51 51°20.023 2°45.633 14.8 43 6.5 101200 100
2005-01-28 08:46:56 51°20.029 2°45.607 14.2 42 6.5 101210 100
2005-01-28 08:47:01 51°20.035 2°45.581 14.5 37 6.5 101210 100
2005-01-28 08:47:06 51°20.042 2°45.547 13.5 40 6.5 101220 100
2005-01-28 08:47:11 51°20.049 2°45.521 14.5 50 6.5 101220 100
2005-01-28 08:47:16 51°20.056 2°45.492 14.9 42 6.5 101210 100
2005-01-28 08:47:21 51°20.063 2°45.466 15.3 41 6.5 101210 100
2005-01-28 08:47:26 51°20.07 2°45.438 14.5 37 6.5 101210 100
2005-01-28 08:47:30 51°20.075 2°45.417 15.8 42 6.5 101210 100
2005-01-28 08:47:36 51°20.084 2°45.378 14.6 42 6.4 101210 100
2005-01-28 08:47:41 51°20.091 2°45.353 14.9 44 6.4 101210 100
2005-01-28 08:47:46 51°20.097 2°45.327 15.2 39 6.5 101210 100
2005-01-28 08:47:51 51°20.103 2°45.3 15.4 37 6.5 101210 100
2005-01-28 08:47:56 51°20.11 2°45.267 15.5 40 6.5 101210 100
2005-01-28 08:48:01 51°20.118 2°45.24 15.8 43 6.5 101210 100
2005-01-28 08:48:06 51°20.124 2°45.214 16.2 38 6.5 101200 100
2005-01-28 08:48:11 51°20.13 2°45.188 15.8 41 6.5 101200 100
2005-01-28 08:48:16 51°20.138 2°45.156 14.1 39 6.5 101210 100
2005-01-28 08:48:21 51°20.145 2°45.128 14.8 41 6.5 101210 100
2005-01-28 08:48:26 51°20.151 2°45.101 15.5 40 6.5 101190 100
2005-01-28 08:48:30 51°20.155 2°45.077 15.7 42 6.5 101190 100
2005-01-28 08:48:36 51°20.16 2°45.038 13.9 50 6.5 101210 100
2005-01-28 08:48:40 51°20.163 2°45.013 14.2 54 6.5 101210 100
2005-01-28 08:48:46 51°20.166 2°44.978 14.6 50 6.5 101200 100
2005-01-28 08:48:51 51°20.169 2°44.948 14.6 47 6.5 101200 100
2005-01-28 08:48:56 51°20.172 2°44.916 14.3 56 6.5 101210 100
2005-01-28 08:49:01 51°20.174 2°44.885 15.3 53 6.5 101210 100
2005-01-28 08:49:06 51°20.177 2°44.853 13.6 53 6.5 101200 100
2005-01-28 08:49:11 51°20.18 2°44.819 14 53 6.5 101200 100
2005-01-28 08:49:16 51°20.182 2°44.79 15.2 49 6.5 101210 100
2005-01-28 08:49:21 51°20.185 2°44.759 13.9 55 6.5 101210 100
2005-01-28 08:49:26 51°20.188 2°44.729 14.5 47 6.5 101210 100
2005-01-28 08:49:31 51°20.191 2°44.7 14.3 49 6.5 101210 100
2005-01-28 08:49:36 51°20.194 2°44.665 14.2 49 6.5 101220 100
2005-01-28 08:49:41 51°20.196 2°44.635 14.5 54 6.5 101220 100
2005-01-28 08:49:45 51°20.199 2°44.605 13.3 56 6.5 101210 100
2005-01-28 08:49:51 51°20.201 2°44.571 14.3 47 6.5 101210 100
2005-01-28 08:49:56 51°20.204 2°44.538 14.5 49 6.5 101220 100
2005-01-28 08:50:01 51°20.206 2°44.509 13.1 46 6.5 101220 100
2005-01-28 08:50:06 51°20.209 2°44.476 15.6 53 6.5 101210 100
2005-01-28 08:50:11 51°20.211 2°44.441 13.7 43 6.5 101210 100
2005-01-28 08:50:16 51°20.214 2°44.41 13.7 51 6.5 101210 100
2005-01-28 08:50:20 51°20.215 2°44.385 13.1 47 6.5 101210 100
2005-01-28 08:50:26 51°20.218 2°44.35 15.3 53 6.5 101210 100
2005-01-28 08:50:31 51°20.22 2°44.318 14.8 48 6.5 101210 100
2005-01-28 08:50:36 51°20.222 2°44.286 15.2 52 6.5 101210 100
2005-01-28 08:50:41 51°20.225 2°44.254 14.4 53 6.5 101210 100
2005-01-28 08:50:46 51°20.228 2°44.223 13.2 50 6.5 101210 100
2005-01-28 08:50:50 51°20.23 2°44.199 14.8 53 6.5 101210 100
2005-01-28 08:50:56 51°20.233 2°44.16 14.2 51 6.5 101220 100
2005-01-28 08:51:01 51°20.236 2°44.131 14.6 45 6.5 101220 100
2005-01-28 08:51:06 51°20.24 2°44.099 13.8 50 6.5 101200 100
2005-01-28 08:51:11 51°20.241 2°44.066 14.8 54 6.5 101200 100
2005-01-28 08:51:16 51°20.244 2°44.037 13.6 46 6.5 101210 100
2005-01-28 08:51:20 51°20.247 2°44.009 14 50 6.5 101210 100
2005-01-28 08:51:26 51°20.249 2°43.974 14.6 46 6.5 101200 100
2005-01-28 08:51:31 51°20.252 2°43.943 13.7 50 6.5 101200 100
2005-01-28 08:51:36 51°20.254 2°43.909 15 58 6.5 101200 100
2005-01-28 08:51:40 51°20.257 2°43.884 12.8 54 6.5 101200 100
2005-01-28 08:51:46 51°20.259 2°43.851 15.2 49 6.5 101210 100
2005-01-28 08:51:51 51°20.262 2°43.822 14.2 51 6.5 101210 100
2005-01-28 08:51:56 51°20.264 2°43.788 15.3 56 6.5 101210 100
2005-01-28 08:52:01 51°20.267 2°43.757 14.7 53 6.5 101210 100
2005-01-28 08:52:05 51°20.269 2°43.728 14.5 50 6.5 101200 100
2005-01-28 08:52:10 51°20.272 2°43.701 15.3 51 6.5 101200 100
2005-01-28 08:52:16 51°20.275 2°43.66 15.3 53 6.5 101210 100
2005-01-28 08:52:21 51°20.278 2°43.632 13.9 52 6.5 101210 100
2005-01-28 08:52:26 51°20.28 2°43.602 14.5 52 6.5 101200 100
2005-01-28 08:52:31 51°20.282 2°43.573 15.1 48 6.5 101200 100
2005-01-28 08:52:36 51°20.285 2°43.538 13.8 53 6.5 101210 100
2005-01-28 08:52:41 51°20.287 2°43.504 14.8 52 6.5 101210 100
2005-01-28 08:52:46 51°20.289 2°43.476 14.3 52 6.5 101210 100
2005-01-28 08:52:51 51°20.292 2°43.449 13.1 51 6.5 101210 100
2005-01-28 08:52:56 51°20.295 2°43.414 14.3 50 6.5 101210 100
2005-01-28 08:53:01 51°20.298 2°43.383 13.9 54 6.5 101210 100
2005-01-28 08:53:06 51°20.3 2°43.353 14.1 54 6.5 101200 100
2005-01-28 08:53:11 51°20.303 2°43.323 14.4 54 6.5 101200 100
2005-01-28 08:53:16 51°20.306 2°43.29 14.8 51 6.5 101210 100
2005-01-28 08:53:21 51°20.309 2°43.259 15.9 56 6.5 101210 100
2005-01-28 08:53:26 51°20.312 2°43.228 12.9 51 6.5 101220 100
2005-01-28 08:53:31 51°20.313 2°43.198 15.3 55 6.5 101220 100
2005-01-28 08:53:36 51°20.316 2°43.162 14 53 6.5 101200 100
2005-01-28 08:53:41 51°20.319 2°43.134 13.2 55 6.5 101200 100
2005-01-28 08:53:46 51°20.322 2°43.104 15.1 53 6.5 101210 100
2005-01-28 08:53:51 51°20.324 2°43.069 14.8 47 6.5 101210 100
2005-01-28 08:53:56 51°20.328 2°43.037 16 52 6.5 101200 100
2005-01-28 08:54:00 51°20.329 2°43.012 14.8 60 6.5 101200 100
2005-01-28 08:54:06 51°20.332 2°42.98 16.4 55 6.5 101200 100
2005-01-28 08:54:11 51°20.335 2°42.952 14.8 53 6.5 101200 100
2005-01-28 08:54:16 51°20.338 2°42.919 13.9 49 6.5 101210 100
2005-01-28 08:54:21 51°20.341 2°42.888 16.1 58 6.5 101210 100
2005-01-28 08:54:26 51°20.344 2°42.859 15.1 48 6.5 101210 100
2005-01-28 08:54:31 51°20.347 2°42.829 15.2 47 6.5 101210 100
2005-01-28 08:54:36 51°20.35 2°42.794 14 51 6.5 101200 100
2005-01-28 08:54:41 51°20.353 2°42.764 13.2 52 6.5 101200 100
2005-01-28 08:54:46 51°20.356 2°42.735 15.9 53 6.5 101200 100
2005-01-28 08:54:51 51°20.358 2°42.7 15.1 55 6.5 101200 100
2005-01-28 08:54:56 51°20.361 2°42.672 15.4 56 6.5 101210 100
2005-01-28 08:55:00 51°20.364 2°42.644 13.6 51 6.5 101210 100
2005-01-28 08:55:06 51°20.367 2°42.612 13.6 44 6.5 101200 100
2005-01-28 08:55:11 51°20.369 2°42.581 13.1 51 6.5 101200 100
2005-01-28 08:55:16 51°20.372 2°42.549 15.2 50 6.5 101200 100
2005-01-28 08:55:21 51°20.375 2°42.517 15.6 56 6.5 101200 100
2005-01-28 08:55:26 51°20.378 2°42.486 14.1 59 6.5 101210 100
2005-01-28 08:55:31 51°20.381 2°42.458 15.4 54 6.5 101210 100
2005-01-28 08:55:36 51°20.383 2°42.422 14.7 56 6.5 101210 100
2005-01-28 08:55:41 51°20.387 2°42.389 14.8 58 6.5 101210 100
2005-01-28 08:55:46 51°20.388 2°42.361 14.5 59 6.5 101210 100
2005-01-28 08:55:50 51°20.391 2°42.336 15.4 52 6.5 101210 100
2005-01-28 08:55:56 51°20.394 2°42.299 14.8 53 6.5 101210 100
2005-01-28 08:56:00 51°20.397 2°42.27 12.4 52 6.5 101210 100
2005-01-28 08:56:06 51°20.401 2°42.238 15 50 6.5 101200 100
2005-01-28 08:56:11 51°20.403 2°42.204 14.6 53 6.5 101200 100
2005-01-28 08:56:16 51°20.404 2°42.177 16.6 59 6.5 101210 100
2005-01-28 08:56:21 51°20.406 2°42.144 14.4 51 6.5 101210 100
2005-01-28 08:56:27 51°20.409 2°42.109 15.9 52 6.5 101200 100
2005-01-28 08:56:31 51°20.411 2°42.083 15.7 52 6.5 101200 100
2005-01-28 08:56:36 51°20.415 2°42.049 13.9 51 6.5 101220 100
2005-01-28 08:56:41 51°20.417 2°42.019 14.8 50 6.5 101220 100
2005-01-28 08:56:46 51°20.421 2°41.987 14 54 6.5 101210 100
2005-01-28 08:56:51 51°20.424 2°41.955 14.9 57 6.5 101210 100
2005-01-28 08:56:56 51°20.427 2°41.926 15.2 53 6.5 101210 100
2005-01-28 08:57:01 51°20.43 2°41.893 15.8 58 6.5 101210 100
2005-01-28 08:57:06 51°20.433 2°41.863 13.8 51 6.5 101210 100
2005-01-28 08:57:10 51°20.435 2°41.839 15.3 55 6.5 101210 100
2005-01-28 08:57:16 51°20.438 2°41.799 13.9 52 6.5 101210 100
2005-01-28 08:57:21 51°20.441 2°41.769 14.3 55 6.5 101210 100
2005-01-28 08:57:26 51°20.444 2°41.737 14.8 54 6.5 101210 100
2005-01-28 08:57:31 51°20.449 2°41.706 13.9 53 6.5 101210 100
2005-01-28 08:57:36 51°20.451 2°41.672 14.6 50 6.5 101200 100
2005-01-28 08:57:40 51°20.454 2°41.647 14.8 51 6.5 101200 100
2005-01-28 08:57:45 51°20.456 2°41.616 13.7 53 6.5 101210 100
2005-01-28 08:57:51 51°20.459 2°41.582 13.3 52 6.5 101210 100
2005-01-28 08:57:56 51°20.463 2°41.55 14.6 55 6.5 101220 100
2005-01-28 08:58:01 51°20.465 2°41.521 14.5 53 6.5 101220 100
2005-01-28 08:58:06 51°20.468 2°41.488 15.3 51 6.5 101220 100
2005-01-28 08:58:11 51°20.472 2°41.454 13.5 58 6.5 101220 100
2005-01-28 08:58:16 51°20.475 2°41.426 13.9 56 6.5 101210 100
2005-01-28 08:58:21 51°20.479 2°41.397 13.4 50 6.5 101210 100
2005-01-28 08:58:26 51°20.481 2°41.362 15.6 58 6.5 101210 100
2005-01-28 08:58:31 51°20.483 2°41.33 13.9 50 6.5 101210 100
2005-01-28 08:58:36 51°20.487 2°41.302 13.8 52 6.6 101210 100
2005-01-28 08:58:41 51°20.49 2°41.27 15.1 54 6.6 101210 100
2005-01-28 08:58:45 51°20.492 2°41.246 15.3 56 6.5 101220 100
2005-01-28 08:58:51 51°20.494 2°41.211 16 56 6.5 101210 100
2005-01-28 08:58:56 51°20.497 2°41.176 14.4 58 6.5 101210 100
2005-01-28 08:59:01 51°20.5 2°41.148 13 50 6.6 101220 100
2005-01-28 08:59:06 51°20.503 2°41.117 13.9 53 6.6 101220 100
2005-01-28 08:59:11 51°20.505 2°41.087 13.6 51 6.6 101230 100
2005-01-28 08:59:16 51°20.508 2°41.051 16.2 53 6.6 101230 100
2005-01-28 08:59:21 51°20.511 2°41.021 15.1 49 6.6 101210 100
2005-01-28 08:59:26 51°20.514 2°40.992 12.9 48 6.6 101210 100
2005-01-28 08:59:31 51°20.516 2°40.956 12.2 51 6.6 101220 100
2005-01-28 08:59:36 51°20.518 2°40.929 13.7 41 6.6 101220 100
2005-01-28 08:59:40 51°20.52 2°40.9 14.9 56 6.6 101220 100
2005-01-28 08:59:46 51°20.523 2°40.864 12.9 54 6.6 101220 100
2005-01-28 08:59:51 51°20.526 2°40.835 13.9 53 6.6 101220 100
2005-01-28 08:59:56 51°20.528 2°40.803 14 49 6.6 101210 100
2005-01-28 09:00:01 51°20.53 2°40.771 14.6 52 6.6 101230 100
2005-01-28 09:00:06 51°20.533 2°40.741 14.9 49 6.6 101230 100
2005-01-28 09:00:11 51°20.536 2°40.712 14.2 50 6.6 101210 100
2005-01-28 09:00:16 51°20.539 2°40.679 14.7 52 6.6 101210 100
2005-01-28 09:00:21 51°20.542 2°40.647 14.9 52 6.6 101230 100
2005-01-28 09:00:25 51°20.544 2°40.62 15.7 57 6.6 101230 100
2005-01-28 09:00:31 51°20.546 2°40.583 14.1 44 6.6 101230 100
2005-01-28 09:00:36 51°20.55 2°40.554 15.1 48 6.6 101210 100
2005-01-28 09:00:40 51°20.553 2°40.525 15.6 48 6.6 101210 100
2005-01-28 09:00:46 51°20.556 2°40.49 15.5 52 6.6 101210 100
2005-01-28 09:00:51 51°20.559 2°40.459 14.5 40 6.6 101220 100
2005-01-28 09:00:56 51°20.562 2°40.428 15.3 55 6.6 101220 100
2005-01-28 09:01:01 51°20.565 2°40.397 16.3 57 6.6 101220 100
2005-01-28 09:01:06 51°20.568 2°40.366 15.4 55 6.6 101210 100
2005-01-28 09:01:11 51°20.571 2°40.334 15.5 53 6.6 101210 100
2005-01-28 09:01:16 51°20.574 2°40.3 14.4 53 6.6 101210 100
2005-01-28 09:01:21 51°20.576 2°40.272 14.2 56 6.6 101210 100
2005-01-28 09:01:26 51°20.579 2°40.242 14.5 52 6.6 101220 100
2005-01-28 09:01:30 51°20.58 2°40.216 15.5 49 6.6 101210 100
2005-01-28 09:01:36 51°20.584 2°40.175 15.5 56 6.6 101210 100
2005-01-28 09:01:41 51°20.586 2°40.147 15.2 54 6.6 101220 100
2005-01-28 09:01:46 51°20.589 2°40.114 14.1 51 6.6 101220 100
2005-01-28 09:01:51 51°20.593 2°40.089 15.3 55 6.6 101220 100
2005-01-28 09:01:56 51°20.596 2°40.052 16 57 6.6 101220 100
2005-01-28 09:02:00 51°20.598 2°40.027 14.6 55 6.6 101220 100
2005-01-28 09:02:06 51°20.601 2°39.992 15.6 58 6.7 101210 100
2005-01-28 09:02:11 51°20.604 2°39.964 14.8 58 6.7 101220 100
2005-01-28 09:02:16 51°20.606 2°39.93 15.6 55 6.7 101220 100
2005-01-28 09:02:21 51°20.608 2°39.899 14 55 6.7 101220 100
2005-01-28 09:02:26 51°20.612 2°39.866 14.3 53 6.7 101210 100
2005-01-28 09:02:31 51°20.613 2°39.837 13 53 6.7 101210 100
2005-01-28 09:02:36 51°20.616 2°39.805 15.8 55 6.7 101200 100
2005-01-28 09:02:41 51°20.619 2°39.773 14.7 52 6.7 101200 100
2005-01-28 09:02:46 51°20.622 2°39.742 14.6 51 6.7 101220 100
2005-01-28 09:02:51 51°20.626 2°39.711 15.8 57 6.7 101220 100
2005-01-28 09:02:56 51°20.629 2°39.68 14.2 58 6.7 101210 100
2005-01-28 09:03:01 51°20.631 2°39.65 14.3 52 6.7 101210 100
2005-01-28 09:03:06 51°20.634 2°39.619 13.6 51 6.7 101220 100
2005-01-28 09:03:11 51°20.637 2°39.585 15 57 6.7 101220 100
2005-01-28 09:03:16 51°20.639 2°39.557 13.7 52 6.7 101220 100
2005-01-28 09:03:21 51°20.641 2°39.525 13.1 53 6.7 101220 100
2005-01-28 09:03:26 51°20.645 2°39.494 13.4 55 6.7 101210 100
2005-01-28 09:03:31 51°20.647 2°39.462 15 57 6.7 101210 100
2005-01-28 09:03:36 51°20.649 2°39.43 13.5 57 6.7 101220 100
2005-01-28 09:03:40 51°20.652 2°39.405 14.5 57 6.7 101220 100
2005-01-28 09:03:46 51°20.655 2°39.37 14.2 59 6.7 101210 100
2005-01-28 09:03:50 51°20.656 2°39.345 13.5 54 6.7 101220 100
2005-01-28 09:03:56 51°20.66 2°39.306 13.6 61 6.7 101220 100
2005-01-28 09:04:01 51°20.662 2°39.278 13.9 61 6.7 101210 100
2005-01-28 09:04:06 51°20.664 2°39.246 14.2 56 6.7 101210 100
2005-01-28 09:04:11 51°20.666 2°39.216 15.9 54 6.7 101210 100
2005-01-28 09:04:16 51°20.667 2°39.182 13.9 52 6.7 101220 100
2005-01-28 09:04:21 51°20.669 2°39.153 14 60 6.7 101220 100
2005-01-28 09:04:26 51°20.67 2°39.123 13.9 56 6.8 101220 100
2005-01-28 09:04:31 51°20.674 2°39.093 13.8 57 6.8 101220 100
2005-01-28 09:04:36 51°20.677 2°39.06 13.1 58 6.8 101220 100
2005-01-28 09:04:41 51°20.679 2°39.032 14 55 6.8 101220 100
2005-01-28 09:04:46 51°20.682 2°38.999 13.3 58 6.8 101220 100
2005-01-28 09:04:51 51°20.684 2°38.971 14.4 57 6.8 101220 100
2005-01-28 09:04:56 51°20.687 2°38.939 14.1 52 6.8 101230 100
2005-01-28 09:05:00 51°20.69 2°38.91 13.8 50 6.8 101230 100
2005-01-28 09:05:06 51°20.692 2°38.876 13.4 52 6.8 101220 100
2005-01-28 09:05:11 51°20.696 2°38.844 15.8 57 6.8 101220 100
2005-01-28 09:05:16 51°20.698 2°38.811 15.3 56 6.8 101220 100
2005-01-28 09:05:21 51°20.701 2°38.783 13.9 59 6.8 101220 100
2005-01-28 09:05:26 51°20.703 2°38.752 15.2 58 6.8 101220 100
2005-01-28 09:05:31 51°20.706 2°38.722 15 54 6.8 101220 100
2005-01-28 09:05:36 51°20.709 2°38.689 13.9 53 6.8 101220 100
2005-01-28 09:05:40 51°20.712 2°38.661 13.1 52 6.8 101220 100
2005-01-28 09:05:46 51°20.716 2°38.627 14.5 52 6.8 101220 100
2005-01-28 09:05:51 51°20.718 2°38.595 14.8 53 6.8 101220 100
2005-01-28 09:05:56 51°20.72 2°38.565 14.4 55 6.8 101220 100
2005-01-28 09:06:01 51°20.722 2°38.535 13.2 53 6.8 101210 100
2005-01-28 09:06:06 51°20.725 2°38.501 15.5 52 6.8 101210 100
2005-01-28 09:06:11 51°20.729 2°38.471 14.4 58 6.8 101210 100
2005-01-28 09:06:16 51°20.73 2°38.441 14.7 52 6.8 101220 100
2005-01-28 09:06:20 51°20.733 2°38.412 14.3 54 6.8 101220 100
2005-01-28 09:06:26 51°20.736 2°38.38 13.3 52 6.8 101220 100
2005-01-28 09:06:31 51°20.738 2°38.348 15 54 6.8 101220 100
2005-01-28 09:06:36 51°20.741 2°38.316 14.3 60 6.8 101230 100
2005-01-28 09:06:41 51°20.743 2°38.287 15.7 54 6.8 101230 100
2005-01-28 09:06:46 51°20.746 2°38.256 13.4 60 6.8 101230 100
2005-01-28 09:06:51 51°20.749 2°38.222 14.5 56 6.8 101230 100
2005-01-28 09:06:56 51°20.752 2°38.191 14.9 52 6.9 101220 100
2005-01-28 09:07:01 51°20.754 2°38.163 14.6 55 6.9 101210 100
2005-01-28 09:07:06 51°20.757 2°38.13 15.4 53 6.9 101210 100
2005-01-28 09:07:11 51°20.759 2°38.1 16.6 58 6.9 101220 100
2005-01-28 09:07:16 51°20.762 2°38.072 14.3 52 6.9 101220 100
2005-01-28 09:07:21 51°20.764 2°38.039 13.9 58 6.9 101230 100
2005-01-28 09:07:26 51°20.768 2°38.009 14.4 55 6.9 101230 100
2005-01-28 09:07:30 51°20.769 2°37.983 16.5 55 6.8 101220 100
2005-01-28 09:07:36 51°20.774 2°37.946 16.7 60 6.8 101220 100
2005-01-28 09:07:40 51°20.776 2°37.918 15.7 59 6.8 101220 100
2005-01-28 09:07:46 51°20.779 2°37.885 14 54 6.9 101210 100
2005-01-28 09:07:51 51°20.783 2°37.854 15.5 57 6.9 101210 100
2005-01-28 09:07:56 51°20.785 2°37.823 15.7 58 6.9 101220 100